sensor_id;sensor_type;location;lat;lon;timestamp;temperature;humidity
18779;DHT22;9518;51.720;14.384;2023-04-06T00:00:32;-0.20;99.90
18779;DHT22;9518;51.720;14.384;2023-04-06T00:02:59;-0.20;99.90
18779;DHT22;9518;51.720;14.384;2023-04-06T00:05:26;-0.20;99.90
18779;DHT22;9518;51.720;14.384;2023-04-06T00:07:56;-0.20;99.90
18779;DHT22;9518;51.720;14.384;2023-04-06T00:10:23;-0.10;99.90
18779;DHT22;9518;51.720;14.384;2023-04-06T00:12:52;-0.10;99.90
18779;DHT22;9518;51.720;14.384;2023-04-06T00:15:19;-0.10;99.90
18779;DHT22;9518;51.720;14.384;2023-04-06T00:17:46;-0.10;99.90
18779;DHT22;9518;51.720;14.384;2023-04-06T00:20:13;0.00;99.90
18779;DHT22;9518;51.720;14.384;2023-04-06T00:22:40;-0.10;99.90
18779;DHT22;9518;51.720;14.384;2023-04-06T00:25:08;-0.10;99.90
18779;DHT22;9518;51.720;14.384;2023-04-06T00:27:35;-0.10;99.90
18779;DHT22;9518;51.720;14.384;2023-04-06T00:30:05;0.00;99.90
18779;DHT22;9518;51.720;14.384;2023-04-06T00:32:32;0.00;99.90
18779;DHT22;9518;51.720;14.384;2023-04-06T00:34:59;0.00;99.90
18779;DHT22;9518;51.720;14.384;2023-04-06T00:37:26;-0.10;99.90
18779;DHT22;9518;51.720;14.384;2023-04-06T00:39:53;0.00;99.90
18779;DHT22;9518;51.720;14.384;2023-04-06T00:42:21;-0.10;99.90
18779;DHT22;9518;51.720;14.384;2023-04-06T00:44:52;-0.10;99.90
18779;DHT22;9518;51.720;14.384;2023-04-06T00:47:21;0.00;99.90
18779;DHT22;9518;51.720;14.384;2023-04-06T00:49:48;0.00;99.90
18779;DHT22;9518;51.720;14.384;2023-04-06T00:52:16;0.00;99.90
18779;DHT22;9518;51.720;14.384;2023-04-06T00:54:43;0.10;99.90
18779;DHT22;9518;51.720;14.384;2023-04-06T00:57:11;0.10;99.90
18779;DHT22;9518;51.720;14.384;2023-04-06T00:59:39;0.10;99.90
18779;DHT22;9518;51.720;14.384;2023-04-06T01:02:07;0.10;99.90
18779;DHT22;9518;51.720;14.384;2023-04-06T01:04:36;0.10;99.90
18779;DHT22;9518;51.720;14.384;2023-04-06T01:07:03;0.10;99.90
18779;DHT22;9518;51.720;14.384;2023-04-06T01:09:30;0.10;99.90
18779;DHT22;9518;51.720;14.384;2023-04-06T01:11:58;0.10;99.90
18779;DHT22;9518;51.720;14.384;2023-04-06T01:14:25;0.10;99.90
18779;DHT22;9518;51.720;14.384;2023-04-06T01:16:58;0.10;99.90
18779;DHT22;9518;51.720;14.384;2023-04-06T01:19:25;0.10;99.90
18779;DHT22;9518;51.720;14.384;2023-04-06T01:21:54;0.20;99.90
18779;DHT22;9518;51.720;14.384;2023-04-06T01:24:23;0.20;99.90
18779;DHT22;9518;51.720;14.384;2023-04-06T01:26:50;0.20;99.90
18779;DHT22;9518;51.720;14.384;2023-04-06T01:29:17;0.10;99.90
18779;DHT22;9518;51.720;14.384;2023-04-06T01:31:45;0.10;99.90
18779;DHT22;9518;51.720;14.384;2023-04-06T01:34:12;0.00;99.90
18779;DHT22;9518;51.720;14.384;2023-04-06T01:36:39;0.00;99.90
18779;DHT22;9518;51.720;14.384;2023-04-06T01:39:06;0.10;99.90
18779;DHT22;9518;51.720;14.384;2023-04-06T01:41:35;0.10;99.90
18779;DHT22;9518;51.720;14.384;2023-04-06T01:44:02;0.10;99.90
18779;DHT22;9518;51.720;14.384;2023-04-06T01:46:29;0.10;99.90
18779;DHT22;9518;51.720;14.384;2023-04-06T01:48:56;0.00;99.90
18779;DHT22;9518;51.720;14.384;2023-04-06T01:51:23;0.10;99.90
18779;DHT22;9518;51.720;14.384;2023-04-06T01:53:51;0.10;99.90
18779;DHT22;9518;51.720;14.384;2023-04-06T01:56:18;0.10;99.90
18779;DHT22;9518;51.720;14.384;2023-04-06T01:58:47;0.10;99.90
18779;DHT22;9518;51.720;14.384;2023-04-06T02:01:14;0.10;99.90
18779;DHT22;9518;51.720;14.384;2023-04-06T02:03:41;0.10;99.90
18779;DHT22;9518;51.720;14.384;2023-04-06T02:06:08;0.20;99.90
18779;DHT22;9518;51.720;14.384;2023-04-06T02:08:35;0.20;99.90
18779;DHT22;9518;51.720;14.384;2023-04-06T02:11:02;0.20;99.90
18779;DHT22;9518;51.720;14.384;2023-04-06T02:13:32;0.20;99.90
18779;DHT22;9518;51.720;14.384;2023-04-06T02:16:01;0.20;99.90
18779;DHT22;9518;51.720;14.384;2023-04-06T02:18:30;0.30;99.90
18779;DHT22;9518;51.720;14.384;2023-04-06T02:20:57;0.30;99.90
18779;DHT22;9518;51.720;14.384;2023-04-06T02:23:24;0.30;99.90
18779;DHT22;9518;51.720;14.384;2023-04-06T02:25:51;0.20;99.90
18779;DHT22;9518;51.720;14.384;2023-04-06T02:28:18;0.20;99.90
18779;DHT22;9518;51.720;14.384;2023-04-06T02:30:46;0.20;99.90
18779;DHT22;9518;51.720;14.384;2023-04-06T02:33:14;0.10;99.90
18779;DHT22;9518;51.720;14.384;2023-04-06T02:35:41;0.10;99.90
18779;DHT22;9518;51.720;14.384;2023-04-06T02:38:09;0.10;99.90
18779;DHT22;9518;51.720;14.384;2023-04-06T02:40:36;0.10;99.90
18779;DHT22;9518;51.720;14.384;2023-04-06T02:43:05;0.10;99.90
18779;DHT22;9518;51.720;14.384;2023-04-06T02:45:32;0.10;99.90
18779;DHT22;9518;51.720;14.384;2023-04-06T02:47:59;0.00;99.90
18779;DHT22;9518;51.720;14.384;2023-04-06T02:50:28;0.00;99.90
18779;DHT22;9518;51.720;14.384;2023-04-06T02:52:55;-0.10;99.90
18779;DHT22;9518;51.720;14.384;2023-04-06T02:55:22;-0.10;99.90
18779;DHT22;9518;51.720;14.384;2023-04-06T02:57:49;-0.10;99.90
18779;DHT22;9518;51.720;14.384;2023-04-06T03:00:19;-0.20;99.90
18779;DHT22;9518;51.720;14.384;2023-04-06T03:02:46;-0.20;99.90
18779;DHT22;9518;51.720;14.384;2023-04-06T03:05:13;-0.30;99.90
18779;DHT22;9518;51.720;14.384;2023-04-06T03:07:42;-0.40;99.90
18779;DHT22;9518;51.720;14.384;2023-04-06T03:10:09;-0.40;99.90
18779;DHT22;9518;51.720;14.384;2023-04-06T03:12:36;-0.50;99.90
18779;DHT22;9518;51.720;14.384;2023-04-06T03:15:04;-0.50;99.90
18779;DHT22;9518;51.720;14.384;2023-04-06T03:17:31;-0.40;99.90
18779;DHT22;9518;51.720;14.384;2023-04-06T03:19:58;-0.50;99.90
18779;DHT22;9518;51.720;14.384;2023-04-06T03:22:25;-0.60;99.90
18779;DHT22;9518;51.720;14.384;2023-04-06T03:24:54;-0.70;99.90
18779;DHT22;9518;51.720;14.384;2023-04-06T03:27:21;-0.80;99.90
18779;DHT22;9518;51.720;14.384;2023-04-06T03:29:48;-0.80;99.90
18779;DHT22;9518;51.720;14.384;2023-04-06T03:32:15;-0.80;99.90
18779;DHT22;9518;51.720;14.384;2023-04-06T03:34:42;-0.90;99.90
18779;DHT22;9518;51.720;14.384;2023-04-06T03:37:09;-0.90;99.90
18779;DHT22;9518;51.720;14.384;2023-04-06T03:39:36;-0.90;99.90
18779;DHT22;9518;51.720;14.384;2023-04-06T03:42:07;-1.00;99.90
18779;DHT22;9518;51.720;14.384;2023-04-06T03:44:34;-1.00;99.90
18779;DHT22;9518;51.720;14.384;2023-04-06T03:47:01;-1.10;99.90
18779;DHT22;9518;51.720;14.384;2023-04-06T03:49:29;-1.10;99.90
18779;DHT22;9518;51.720;14.384;2023-04-06T03:51:56;-1.20;99.90
18779;DHT22;9518;51.720;14.384;2023-04-06T03:54:24;-1.20;99.90
18779;DHT22;9518;51.720;14.384;2023-04-06T03:56:51;-1.30;99.90
18779;DHT22;9518;51.720;14.384;2023-04-06T03:59:19;-1.40;99.90
18779;DHT22;9518;51.720;14.384;2023-04-06T04:01:46;-1.40;99.90
18779;DHT22;9518;51.720;14.384;2023-04-06T04:04:13;-1.40;99.90
18779;DHT22;9518;51.720;14.384;2023-04-06T04:06:41;-1.40;99.90
18779;DHT22;9518;51.720;14.384;2023-04-06T04:09:08;-1.40;99.90
18779;DHT22;9518;51.720;14.384;2023-04-06T04:11:35;-1.40;99.90
18779;DHT22;9518;51.720;14.384;2023-04-06T04:14:02;-1.40;99.90
18779;DHT22;9518;51.720;14.384;2023-04-06T04:16:30;-1.40;99.90
18779;DHT22;9518;51.720;14.384;2023-04-06T04:18:57;-1.40;99.90
18779;DHT22;9518;51.720;14.384;2023-04-06T04:21:24;-1.50;99.90
18779;DHT22;9518;51.720;14.384;2023-04-06T04:23:52;-1.40;99.90
18779;DHT22;9518;51.720;14.384;2023-04-06T04:26:19;-1.40;99.90
18779;DHT22;9518;51.720;14.384;2023-04-06T04:28:46;-1.40;99.90
18779;DHT22;9518;51.720;14.384;2023-04-06T04:31:13;-1.40;99.90
18779;DHT22;9518;51.720;14.384;2023-04-06T04:33:42;-1.40;99.90
18779;DHT22;9518;51.720;14.384;2023-04-06T04:36:09;-1.40;99.90
18779;DHT22;9518;51.720;14.384;2023-04-06T04:38:36;-1.30;99.90
18779;DHT22;9518;51.720;14.384;2023-04-06T04:41:03;-1.30;99.90
18779;DHT22;9518;51.720;14.384;2023-04-06T04:43:30;-1.30;99.90
18779;DHT22;9518;51.720;14.384;2023-04-06T04:45:58;-1.20;99.90
18779;DHT22;9518;51.720;14.384;2023-04-06T04:48:27;-1.20;99.90
18779;DHT22;9518;51.720;14.384;2023-04-06T04:50:56;-1.10;99.90
18779;DHT22;9518;51.720;14.384;2023-04-06T04:53:23;-1.10;99.90
18779;DHT22;9518;51.720;14.384;2023-04-06T04:55:51;-1.00;99.90
18779;DHT22;9518;51.720;14.384;2023-04-06T04:58:18;-1.00;99.90
18779;DHT22;9518;51.720;14.384;2023-04-06T05:00:45;-1.00;99.90
18779;DHT22;9518;51.720;14.384;2023-04-06T05:03:18;-0.90;99.90
18779;DHT22;9518;51.720;14.384;2023-04-06T05:05:46;-0.80;99.90
18779;DHT22;9518;51.720;14.384;2023-04-06T05:08:15;-0.70;99.90
18779;DHT22;9518;51.720;14.384;2023-04-06T05:10:42;-0.60;99.90
18779;DHT22;9518;51.720;14.384;2023-04-06T05:13:10;-0.60;99.90
18779;DHT22;9518;51.720;14.384;2023-04-06T05:15:37;-0.50;99.90
18779;DHT22;9518;51.720;14.384;2023-04-06T05:18:05;-0.40;99.90
18779;DHT22;9518;51.720;14.384;2023-04-06T05:20:33;-0.40;99.90
18779;DHT22;9518;51.720;14.384;2023-04-06T05:23:00;-0.40;99.90
18779;DHT22;9518;51.720;14.384;2023-04-06T05:25:28;-0.30;99.90
18779;DHT22;9518;51.720;14.384;2023-04-06T05:27:55;-0.30;99.90
18779;DHT22;9518;51.720;14.384;2023-04-06T05:30:23;-0.20;99.90
18779;DHT22;9518;51.720;14.384;2023-04-06T05:32:50;0.00;99.90
18779;DHT22;9518;51.720;14.384;2023-04-06T05:35:17;-0.10;99.90
18779;DHT22;9518;51.720;14.384;2023-04-06T05:37:45;0.00;99.90
18779;DHT22;9518;51.720;14.384;2023-04-06T05:40:12;0.10;99.90
18779;DHT22;9518;51.720;14.384;2023-04-06T05:42:42;0.10;99.90
18779;DHT22;9518;51.720;14.384;2023-04-06T05:45:10;0.20;99.90
18779;DHT22;9518;51.720;14.384;2023-04-06T05:47:42;0.30;99.90
18779;DHT22;9518;51.720;14.384;2023-04-06T05:50:10;0.40;99.90
18779;DHT22;9518;51.720;14.384;2023-04-06T05:52:37;0.40;99.90
18779;DHT22;9518;51.720;14.384;2023-04-06T05:55:09;0.50;99.90
18779;DHT22;9518;51.720;14.384;2023-04-06T05:57:36;0.70;99.90
18779;DHT22;9518;51.720;14.384;2023-04-06T06:00:06;0.70;99.90
18779;DHT22;9518;51.720;14.384;2023-04-06T06:02:35;0.90;99.90
18779;DHT22;9518;51.720;14.384;2023-04-06T06:05:02;1.00;99.90
18779;DHT22;9518;51.720;14.384;2023-04-06T06:07:30;1.20;99.90
18779;DHT22;9518;51.720;14.384;2023-04-06T06:09:57;1.30;99.90
18779;DHT22;9518;51.720;14.384;2023-04-06T06:12:24;1.60;99.90
18779;DHT22;9518;51.720;14.384;2023-04-06T06:14:51;2.00;99.90
18779;DHT22;9518;51.720;14.384;2023-04-06T06:17:20;2.30;99.90
18779;DHT22;9518;51.720;14.384;2023-04-06T06:19:48;2.70;99.90
18779;DHT22;9518;51.720;14.384;2023-04-06T06:22:15;2.90;99.90
18779;DHT22;9518;51.720;14.384;2023-04-06T06:24:42;2.90;1.00
18779;DHT22;9518;51.720;14.384;2023-04-06T06:27:09;3.00;1.00
18779;DHT22;9518;51.720;14.384;2023-04-06T06:29:36;3.10;1.00
18779;DHT22;9518;51.720;14.384;2023-04-06T06:32:03;3.40;99.90
18779;DHT22;9518;51.720;14.384;2023-04-06T06:34:32;3.60;1.00
18779;DHT22;9518;51.720;14.384;2023-04-06T06:36:59;3.50;1.00
18779;DHT22;9518;51.720;14.384;2023-04-06T06:39:26;3.60;1.00
18779;DHT22;9518;51.720;14.384;2023-04-06T06:41:53;3.90;1.00
18779;DHT22;9518;51.720;14.384;2023-04-06T06:44:20;4.10;1.00
18779;DHT22;9518;51.720;14.384;2023-04-06T06:46:48;4.30;71.60
18779;DHT22;9518;51.720;14.384;2023-04-06T06:49:15;4.50;1.00
18779;DHT22;9518;51.720;14.384;2023-04-06T06:51:44;4.80;1.00
18779;DHT22;9518;51.720;14.384;2023-04-06T06:54:12;4.70;1.00
18779;DHT22;9518;51.720;14.384;2023-04-06T06:56:39;4.60;1.00
18779;DHT22;9518;51.720;14.384;2023-04-06T06:59:06;4.50;1.00
18779;DHT22;9518;51.720;14.384;2023-04-06T07:01:33;4.50;1.00
18779;DHT22;9518;51.720;14.384;2023-04-06T07:04:04;4.70;1.00
18779;DHT22;9518;51.720;14.384;2023-04-06T07:06:31;4.90;1.00
18779;DHT22;9518;51.720;14.384;2023-04-06T07:09:00;5.00;1.00
18779;DHT22;9518;51.720;14.384;2023-04-06T07:11:28;5.20;99.90
18779;DHT22;9518;51.720;14.384;2023-04-06T07:13:55;5.40;99.90
18779;DHT22;9518;51.720;14.384;2023-04-06T07:16:23;5.50;99.90
18779;DHT22;9518;51.720;14.384;2023-04-06T07:18:50;5.40;99.90
18779;DHT22;9518;51.720;14.384;2023-04-06T07:21:17;5.50;99.90
18779;DHT22;9518;51.720;14.384;2023-04-06T07:23:44;5.70;99.90
18779;DHT22;9518;51.720;14.384;2023-04-06T07:26:15;5.80;99.90
18779;DHT22;9518;51.720;14.384;2023-04-06T07:28:46;5.90;29.90
18779;DHT22;9518;51.720;14.384;2023-04-06T07:31:13;6.10;26.90
18779;DHT22;9518;51.720;14.384;2023-04-06T07:33:40;6.30;25.10
18779;DHT22;9518;51.720;14.384;2023-04-06T07:36:07;6.50;2.10
18779;DHT22;9518;51.720;14.384;2023-04-06T07:38:35;6.60;1.00
18779;DHT22;9518;51.720;14.384;2023-04-06T07:41:02;6.80;1.00
18779;DHT22;9518;51.720;14.384;2023-04-06T07:43:31;6.90;1.00
18779;DHT22;9518;51.720;14.384;2023-04-06T07:45:58;7.00;1.00
18779;DHT22;9518;51.720;14.384;2023-04-06T07:48:26;7.10;1.00
18779;DHT22;9518;51.720;14.384;2023-04-06T07:51:01;7.10;1.00
18779;DHT22;9518;51.720;14.384;2023-04-06T07:53:28;7.30;1.00
18779;DHT22;9518;51.720;14.384;2023-04-06T07:55:56;7.40;1.00
18779;DHT22;9518;51.720;14.384;2023-04-06T07:58:23;7.60;1.00
18779;DHT22;9518;51.720;14.384;2023-04-06T08:00:51;7.80;1.00
18779;DHT22;9518;51.720;14.384;2023-04-06T08:03:20;8.00;1.00
18779;DHT22;9518;51.720;14.384;2023-04-06T08:05:51;8.10;1.00
18779;DHT22;9518;51.720;14.384;2023-04-06T08:08:19;8.10;1.00
18779;DHT22;9518;51.720;14.384;2023-04-06T08:10:46;8.20;1.00
18779;DHT22;9518;51.720;14.384;2023-04-06T08:13:14;8.40;1.00
18779;DHT22;9518;51.720;14.384;2023-04-06T08:15:41;8.60;1.00
18779;DHT22;9518;51.720;14.384;2023-04-06T08:18:09;8.80;1.00
18779;DHT22;9518;51.720;14.384;2023-04-06T08:20:37;8.90;1.00
18779;DHT22;9518;51.720;14.384;2023-04-06T08:23:04;9.00;1.00
18779;DHT22;9518;51.720;14.384;2023-04-06T08:25:33;9.00;1.00
18779;DHT22;9518;51.720;14.384;2023-04-06T08:28:01;9.10;96.00
18779;DHT22;9518;51.720;14.384;2023-04-06T08:30:29;9.00;99.90
18779;DHT22;9518;51.720;14.384;2023-04-06T08:32:56;9.10;99.90
18779;DHT22;9518;51.720;14.384;2023-04-06T08:35:26;9.30;1.00
18779;DHT22;9518;51.720;14.384;2023-04-06T08:37:57;9.30;1.00
18779;DHT22;9518;51.720;14.384;2023-04-06T08:40:24;9.40;99.90
18779;DHT22;9518;51.720;14.384;2023-04-06T08:42:54;9.40;1.00
18779;DHT22;9518;51.720;14.384;2023-04-06T08:45:22;9.70;1.00
18779;DHT22;9518;51.720;14.384;2023-04-06T08:47:50;9.90;99.90
18779;DHT22;9518;51.720;14.384;2023-04-06T08:50:18;9.70;1.00
18779;DHT22;9518;51.720;14.384;2023-04-06T08:52:48;9.60;1.00
18779;DHT22;9518;51.720;14.384;2023-04-06T08:55:15;9.70;99.90
18779;DHT22;9518;51.720;14.384;2023-04-06T08:57:43;9.90;1.00
18779;DHT22;9518;51.720;14.384;2023-04-06T09:00:12;10.20;99.90
18779;DHT22;9518;51.720;14.384;2023-04-06T09:02:42;10.50;1.00
18779;DHT22;9518;51.720;14.384;2023-04-06T09:05:10;10.60;99.90
18779;DHT22;9518;51.720;14.384;2023-04-06T09:07:38;10.60;1.00
18779;DHT22;9518;51.720;14.384;2023-04-06T09:10:09;10.60;1.00
18779;DHT22;9518;51.720;14.384;2023-04-06T09:12:36;10.90;1.00
18779;DHT22;9518;51.720;14.384;2023-04-06T09:15:04;11.20;1.00
18779;DHT22;9518;51.720;14.384;2023-04-06T09:17:32;10.70;1.00
18779;DHT22;9518;51.720;14.384;2023-04-06T09:19:59;10.80;1.00
18779;DHT22;9518;51.720;14.384;2023-04-06T09:22:35;11.10;1.00
18779;DHT22;9518;51.720;14.384;2023-04-06T09:25:03;11.10;1.00
18779;DHT22;9518;51.720;14.384;2023-04-06T09:27:34;10.90;53.20
18779;DHT22;9518;51.720;14.384;2023-04-06T09:30:05;10.70;57.90
18779;DHT22;9518;51.720;14.384;2023-04-06T09:32:32;10.50;58.30
18779;DHT22;9518;51.720;14.384;2023-04-06T09:35:06;10.60;56.90
18779;DHT22;9518;51.720;14.384;2023-04-06T09:37:33;11.20;54.50
18779;DHT22;9518;51.720;14.384;2023-04-06T09:40:06;11.30;54.30
18779;DHT22;9518;51.720;14.384;2023-04-06T09:42:35;11.50;52.50
18779;DHT22;9518;51.720;14.384;2023-04-06T09:45:03;11.80;52.80
18779;DHT22;9518;51.720;14.384;2023-04-06T09:47:30;12.00;52.90
18779;DHT22;9518;51.720;14.384;2023-04-06T09:49:59;12.20;50.70
18779;DHT22;9518;51.720;14.384;2023-04-06T09:52:30;11.80;49.10
18779;DHT22;9518;51.720;14.384;2023-04-06T09:55:02;12.00;51.40
18779;DHT22;9518;51.720;14.384;2023-04-06T09:57:35;12.40;51.50
18779;DHT22;9518;51.720;14.384;2023-04-06T10:00:06;12.80;50.50
18779;DHT22;9518;51.720;14.384;2023-04-06T10:02:41;12.90;45.60
18779;DHT22;9518;51.720;14.384;2023-04-06T10:05:16;12.40;48.50
18779;DHT22;9518;51.720;14.384;2023-04-06T10:07:45;12.60;50.60
18779;DHT22;9518;51.720;14.384;2023-04-06T10:10:14;12.60;49.60
18779;DHT22;9518;51.720;14.384;2023-04-06T10:12:44;12.80;52.30
18779;DHT22;9518;51.720;14.384;2023-04-06T10:15:12;12.70;49.10
18779;DHT22;9518;51.720;14.384;2023-04-06T10:17:39;12.60;51.10
18779;DHT22;9518;51.720;14.384;2023-04-06T10:20:10;12.60;50.40
18779;DHT22;9518;51.720;14.384;2023-04-06T10:22:42;13.00;50.30
18779;DHT22;9518;51.720;14.384;2023-04-06T10:25:11;12.80;48.30
18779;DHT22;9518;51.720;14.384;2023-04-06T10:27:38;12.40;48.90
18779;DHT22;9518;51.720;14.384;2023-04-06T10:30:07;12.10;48.10
18779;DHT22;9518;51.720;14.384;2023-04-06T10:32:35;11.60;49.40
18779;DHT22;9518;51.720;14.384;2023-04-06T10:35:10;11.40;49.40
18779;DHT22;9518;51.720;14.384;2023-04-06T10:37:50;11.30;51.50
18779;DHT22;9518;51.720;14.384;2023-04-06T10:40:22;11.40;51.80
18779;DHT22;9518;51.720;14.384;2023-04-06T10:42:50;11.30;50.30
18779;DHT22;9518;51.720;14.384;2023-04-06T10:45:23;11.40;50.90
18779;DHT22;9518;51.720;14.384;2023-04-06T10:47:53;10.90;48.90
18779;DHT22;9518;51.720;14.384;2023-04-06T10:50:21;10.90;50.00
18779;DHT22;9518;51.720;14.384;2023-04-06T10:52:59;11.00;50.90
18779;DHT22;9518;51.720;14.384;2023-04-06T10:55:27;11.00;50.90
18779;DHT22;9518;51.720;14.384;2023-04-06T10:57:55;11.00;50.60
18779;DHT22;9518;51.720;14.384;2023-04-06T11:00:24;11.10;50.50
18779;DHT22;9518;51.720;14.384;2023-04-06T11:02:58;11.20;50.00
18779;DHT22;9518;51.720;14.384;2023-04-06T11:05:25;11.20;49.40
18779;DHT22;9518;51.720;14.384;2023-04-06T11:07:52;11.40;49.00
18779;DHT22;9518;51.720;14.384;2023-04-06T11:10:21;11.40;49.70
18779;DHT22;9518;51.720;14.384;2023-04-06T11:12:53;11.40;48.80
18779;DHT22;9518;51.720;14.384;2023-04-06T11:15:21;11.60;49.20
18779;DHT22;9518;51.720;14.384;2023-04-06T11:17:49;11.80;50.80
18779;DHT22;9518;51.720;14.384;2023-04-06T11:20:16;11.80;47.00
18779;DHT22;9518;51.720;14.384;2023-04-06T11:22:49;12.00;47.40
18779;DHT22;9518;51.720;14.384;2023-04-06T11:25:16;12.30;47.20
18779;DHT22;9518;51.720;14.384;2023-04-06T11:27:45;12.40;46.40
18779;DHT22;9518;51.720;14.384;2023-04-06T11:30:13;12.40;44.20
18779;DHT22;9518;51.720;14.384;2023-04-06T11:32:41;12.30;44.10
18779;DHT22;9518;51.720;14.384;2023-04-06T11:35:18;12.20;44.50
18779;DHT22;9518;51.720;14.384;2023-04-06T11:37:46;12.40;45.10
18779;DHT22;9518;51.720;14.384;2023-04-06T11:40:13;12.70;43.30
18779;DHT22;9518;51.720;14.384;2023-04-06T11:42:40;12.60;42.30
18779;DHT22;9518;51.720;14.384;2023-04-06T11:45:08;12.60;42.30
18779;DHT22;9518;51.720;14.384;2023-04-06T11:47:36;12.80;44.00
18779;DHT22;9518;51.720;14.384;2023-04-06T11:50:07;13.10;42.90
18779;DHT22;9518;51.720;14.384;2023-04-06T11:52:37;13.20;42.20
18779;DHT22;9518;51.720;14.384;2023-04-06T11:55:13;13.10;42.00
18779;DHT22;9518;51.720;14.384;2023-04-06T11:57:40;12.90;39.50
18779;DHT22;9518;51.720;14.384;2023-04-06T12:00:09;12.60;38.70
18779;DHT22;9518;51.720;14.384;2023-04-06T12:02:36;12.70;42.70
18779;DHT22;9518;51.720;14.384;2023-04-06T12:05:05;13.00;42.10
18779;DHT22;9518;51.720;14.384;2023-04-06T12:07:33;13.30;41.30
18779;DHT22;9518;51.720;14.384;2023-04-06T12:10:02;13.10;38.60
18779;DHT22;9518;51.720;14.384;2023-04-06T12:12:30;13.20;42.40
18779;DHT22;9518;51.720;14.384;2023-04-06T12:14:58;13.40;41.50
18779;DHT22;9518;51.720;14.384;2023-04-06T12:17:25;13.80;40.60
18779;DHT22;9518;51.720;14.384;2023-04-06T12:19:52;14.10;42.30
18779;DHT22;9518;51.720;14.384;2023-04-06T12:22:19;13.70;38.30
18779;DHT22;9518;51.720;14.384;2023-04-06T12:24:47;13.40;39.60
18779;DHT22;9518;51.720;14.384;2023-04-06T12:27:15;13.90;44.50
18779;DHT22;9518;51.720;14.384;2023-04-06T12:29:42;14.40;39.60
18779;DHT22;9518;51.720;14.384;2023-04-06T12:32:10;14.80;40.60
18779;DHT22;9518;51.720;14.384;2023-04-06T12:34:38;14.60;36.40
18779;DHT22;9518;51.720;14.384;2023-04-06T12:37:05;14.40;38.00
18779;DHT22;9518;51.720;14.384;2023-04-06T12:39:33;14.50;39.60
18779;DHT22;9518;51.720;14.384;2023-04-06T12:42:01;14.80;35.30
18779;DHT22;9518;51.720;14.384;2023-04-06T12:44:29;14.40;39.20
18779;DHT22;9518;51.720;14.384;2023-04-06T12:46:57;14.60;42.20
18779;DHT22;9518;51.720;14.384;2023-04-06T12:49:24;15.00;39.70
18779;DHT22;9518;51.720;14.384;2023-04-06T12:51:51;15.30;38.50
18779;DHT22;9518;51.720;14.384;2023-04-06T12:54:18;15.10;38.30
18779;DHT22;9518;51.720;14.384;2023-04-06T12:56:45;15.20;41.20
18779;DHT22;9518;51.720;14.384;2023-04-06T12:59:12;15.20;35.60
18779;DHT22;9518;51.720;14.384;2023-04-06T13:01:41;15.20;38.20
18779;DHT22;9518;51.720;14.384;2023-04-06T13:04:09;16.30;38.80
18779;DHT22;9518;51.720;14.384;2023-04-06T13:06:37;17.20;36.80
18779;DHT22;9518;51.720;14.384;2023-04-06T13:09:04;18.00;34.70
18779;DHT22;9518;51.720;14.384;2023-04-06T13:11:31;19.30;38.40
18779;DHT22;9518;51.720;14.384;2023-04-06T13:13:58;20.40;34.00
18779;DHT22;9518;51.720;14.384;2023-04-06T13:16:25;21.30;32.80
18779;DHT22;9518;51.720;14.384;2023-04-06T13:18:54;21.60;32.40
18779;DHT22;9518;51.720;14.384;2023-04-06T13:21:21;22.10;32.10
18779;DHT22;9518;51.720;14.384;2023-04-06T13:24:09;22.50;29.50
18779;DHT22;9518;51.720;14.384;2023-04-06T13:26:36;22.40;29.30
18779;DHT22;9518;51.720;14.384;2023-04-06T13:29:03;22.70;29.40
18779;DHT22;9518;51.720;14.384;2023-04-06T13:31:30;23.70;28.80
18779;DHT22;9518;51.720;14.384;2023-04-06T13:33:59;24.20;27.60
18779;DHT22;9518;51.720;14.384;2023-04-06T13:36:26;23.60;25.30
18779;DHT22;9518;51.720;14.384;2023-04-06T13:38:53;23.70;26.70
18779;DHT22;9518;51.720;14.384;2023-04-06T13:41:22;23.80;26.70
18779;DHT22;9518;51.720;14.384;2023-04-06T13:43:49;22.50;25.30
18779;DHT22;9518;51.720;14.384;2023-04-06T13:46:19;21.40;26.50
18779;DHT22;9518;51.720;14.384;2023-04-06T13:49:02;21.90;27.50
18779;DHT22;9518;51.720;14.384;2023-04-06T13:51:32;22.90;27.90
18779;DHT22;9518;51.720;14.384;2023-04-06T13:54:00;24.10;26.80
18779;DHT22;9518;51.720;14.384;2023-04-06T13:56:27;24.60;26.10
18779;DHT22;9518;51.720;14.384;2023-04-06T13:59:03;25.40;26.50
18779;DHT22;9518;51.720;14.384;2023-04-06T14:01:34;25.30;25.80
18779;DHT22;9518;51.720;14.384;2023-04-06T14:04:05;23.60;24.20
18779;DHT22;9518;51.720;14.384;2023-04-06T14:06:32;21.80;26.20
18779;DHT22;9518;51.720;14.384;2023-04-06T14:08:59;20.40;26.20
18779;DHT22;9518;51.720;14.384;2023-04-06T14:11:26;18.50;27.60
18779;DHT22;9518;51.720;14.384;2023-04-06T14:13:54;17.40;28.80
18779;DHT22;9518;51.720;14.384;2023-04-06T14:16:23;16.70;30.70
18779;DHT22;9518;51.720;14.384;2023-04-06T14:18:50;15.90;31.20
18779;DHT22;9518;51.720;14.384;2023-04-06T14:21:19;15.60;33.10
18779;DHT22;9518;51.720;14.384;2023-04-06T14:23:46;15.90;32.50
18779;DHT22;9518;51.720;14.384;2023-04-06T14:26:13;15.60;32.20
18779;DHT22;9518;51.720;14.384;2023-04-06T14:28:41;15.20;32.30
18779;DHT22;9518;51.720;14.384;2023-04-06T14:31:13;14.80;33.20
18779;DHT22;9518;51.720;14.384;2023-04-06T14:33:40;14.80;34.00
18779;DHT22;9518;51.720;14.384;2023-04-06T14:36:08;14.80;33.40
18779;DHT22;9518;51.720;14.384;2023-04-06T14:38:37;14.60;33.40
18779;DHT22;9518;51.720;14.384;2023-04-06T14:41:05;14.10;34.10
18779;DHT22;9518;51.720;14.384;2023-04-06T14:43:33;13.70;33.90
18779;DHT22;9518;51.720;14.384;2023-04-06T14:46:01;13.30;33.60
18779;DHT22;9518;51.720;14.384;2023-04-06T14:48:28;13.00;33.20
18779;DHT22;9518;51.720;14.384;2023-04-06T14:50:55;12.80;34.90
18779;DHT22;9518;51.720;14.384;2023-04-06T14:53:23;12.70;35.20
18779;DHT22;9518;51.720;14.384;2023-04-06T14:55:51;12.50;34.80
18779;DHT22;9518;51.720;14.384;2023-04-06T14:58:19;12.40;36.50
18779;DHT22;9518;51.720;14.384;2023-04-06T15:00:46;12.30;38.80
18779;DHT22;9518;51.720;14.384;2023-04-06T15:03:13;12.20;39.20
18779;DHT22;9518;51.720;14.384;2023-04-06T15:05:41;12.20;41.40
18779;DHT22;9518;51.720;14.384;2023-04-06T15:08:08;12.00;41.80
18779;DHT22;9518;51.720;14.384;2023-04-06T15:10:37;12.80;38.50
18779;DHT22;9518;51.720;14.384;2023-04-06T15:13:06;13.70;37.40
18779;DHT22;9518;51.720;14.384;2023-04-06T15:15:33;14.60;34.30
18779;DHT22;9518;51.720;14.384;2023-04-06T15:18:00;15.40;31.80
18779;DHT22;9518;51.720;14.384;2023-04-06T15:20:28;15.40;30.60
18779;DHT22;9518;51.720;14.384;2023-04-06T15:22:56;16.10;34.40
18779;DHT22;9518;51.720;14.384;2023-04-06T15:25:23;17.70;31.50
18779;DHT22;9518;51.720;14.384;2023-04-06T15:27:50;18.90;29.50
18779;DHT22;9518;51.720;14.384;2023-04-06T15:30:19;20.00;30.30
18779;DHT22;9518;51.720;14.384;2023-04-06T15:32:52;21.00;30.20
18779;DHT22;9518;51.720;14.384;2023-04-06T15:35:20;21.80;27.30
18779;DHT22;9518;51.720;14.384;2023-04-06T15:37:47;22.50;27.70
18779;DHT22;9518;51.720;14.384;2023-04-06T15:40:15;23.20;27.80
18779;DHT22;9518;51.720;14.384;2023-04-06T15:42:42;23.30;26.70